Terminal Aerodrome Forecast
Issued by NWS

Home | Current Version | Previous Version | Text Only | Print | Product List | Glossary On
Versions: 1 2 3 4 5 6 7 8 9 10 11 12 13
000
FTUS42 KTAE 161739
TAFDHN
TAF
KDHN 161739Z 1618/1718 15007KT P6SM BKN070
     FM170900 15004KT 5SM BR FEW007
     FM171300 17005KT P6SM SCT050=

USA.gov is the U.S. government's official web portal to all federal, state and local government web resources and services.